Thurles, Ireland
Current Conditions -  °F | °C
As of 9:30 PM on Saturday 22 Nov 2014 (Local Time) from EIWF Reporting Station
Clear Clear  
Wind Chill:   Ceiling: Unl
Heat Index:   Visibility: 6mi
Dew Point:   Wind: 5mph
Humidity: 93%   Direction: 320°NW
Pressure: 30.03"   Gusts: NA
Location:  52.68°N, 7.48°W
Report Text: EIWF 222030Z 32004KT 300V360 CAVOK 05/04 Q1017
Loading
Personal Weather Stations






























Interactive Weather Map New forecast layout! Learn more

10-Day Weather Forecast

Advertisements
Track Severe Weather on mobile